Time;durP1;ratioP1;P1;durP2;ratioP2;P2;SDS_P1;SDS_P2;PMS_P1;PMS_P2;Temp;Humidity;BMP_temperature;BMP_pressure;BME280_temperature;BME280_humidity;BME280_pressure;Samples;Min_cycle;Max_cycle;Signal;HPM_P1;HPM_P2
2023/10/01 00:00:08;;;;;;;2.60;1.80;;;;;;;;;;5001752;28;20212;-61
2023/10/01 00:02:34;;;;;;;3.40;2.20;;;;;;;;;;4997097;28;20690;-61
2023/10/01 00:05:00;;;;;;;2.38;2.10;;;;;;;;;;4999147;28;20189;-61
2023/10/01 00:07:28;;;;;;;3.40;2.25;;;;;;;;;;5001521;28;20452;-61
2023/10/01 00:09:54;;;;;;;2.72;2.22;;;;;;;;;;4989810;28;20178;-61
2023/10/01 00:12:23;;;;;;;2.90;2.03;;;;;;;;;;5004671;28;20200;-61
2023/10/01 00:14:49;;;;;;;4.60;1.98;;;;;;;;;;5004459;28;20560;-61
2023/10/01 00:17:15;;;;;;;2.90;2.20;;;;;;;;;;4996510;28;20192;-61
2023/10/01 00:19:41;;;;;;;3.03;1.85;;;;;;;;;;4997897;28;20219;-61
2023/10/01 00:22:07;;;;;;;2.90;1.90;;;;;;;;;;5001617;28;20184;-61
2023/10/01 00:24:33;;;;;;;2.65;2.00;;;;;;;;;;4999077;28;20479;-60
2023/10/01 00:27:01;;;;;;;2.47;1.73;;;;;;;;;;5010556;28;20189;-61
2023/10/01 00:29:27;;;;;;;2.53;1.77;;;;;;;;;;4999811;28;20185;-61
2023/10/01 00:31:53;;;;;;;2.58;2.03;;;;;;;;;;5009702;28;20188;-61
2023/10/01 00:34:19;;;;;;;2.30;1.73;;;;;;;;;;4994572;28;20197;-61
2023/10/01 00:36:45;;;;;;;3.65;1.73;;;;;;;;;;5004487;28;20176;-61
2023/10/01 00:39:12;;;;;;;2.08;1.30;;;;;;;;;;4994463;28;20295;-61
2023/10/01 00:41:38;;;;;;;2.33;1.70;;;;;;;;;;4998993;28;20180;-61
2023/10/01 00:44:04;;;;;;;3.58;2.00;;;;;;;;;;4996748;28;20193;-62
2023/10/01 00:46:31;;;;;;;1.83;1.60;;;;;;;;;;4993282;28;20174;-61
2023/10/01 00:49:00;;;;;;;1.95;1.73;;;;;;;;;;4989715;28;20203;-61
2023/10/01 00:51:26;;;;;;;2.08;1.83;;;;;;;;;;5001792;28;20209;-61
2023/10/01 00:53:52;;;;;;;2.63;1.80;;;;;;;;;;5002708;28;20188;-61
2023/10/01 00:56:20;;;;;;;2.88;1.75;;;;;;;;;;4997622;28;20193;-61
2023/10/01 00:58:46;;;;;;;3.10;1.60;;;;;;;;;;5003889;28;20180;-61
2023/10/01 01:01:12;;;;;;;3.67;2.00;;;;;;;;;;5003548;28;20575;-62
2023/10/01 01:03:38;;;;;;;2.13;1.48;;;;;;;;;;5003702;28;20196;-61
2023/10/01 01:06:17;;;;;;;2.10;1.50;;;;;;;;;;5004765;28;20216;-61
2023/10/01 01:08:56;;;;;;;2.08;1.88;;;;;;;;;;5002666;28;20488;-61
2023/10/01 01:11:22;;;;;;;2.40;1.45;;;;;;;;;;5000113;28;20545;-62
2023/10/01 01:13:51;;;;;;;1.73;1.40;;;;;;;;;;5002138;28;20268;-62
2023/10/01 01:16:19;;;;;;;3.28;1.73;;;;;;;;;;5003121;28;20264;-62
2023/10/01 01:18:46;;;;;;;2.38;1.75;;;;;;;;;;5000206;28;20185;-61
2023/10/01 01:21:13;;;;;;;4.25;1.67;;;;;;;;;;5003530;28;20287;-61
2023/10/01 01:23:41;;;;;;;3.40;1.65;;;;;;;;;;4998355;28;20211;-61
2023/10/01 01:26:07;;;;;;;2.20;1.70;;;;;;;;;;5006360;28;20271;-61
2023/10/01 01:28:35;;;;;;;2.33;1.50;;;;;;;;;;5009350;28;20187;-61
2023/10/01 01:31:05;;;;;;;2.53;1.40;;;;;;;;;;5005856;28;20184;-61
2023/10/01 01:33:32;;;;;;;2.20;1.58;;;;;;;;;;5006338;28;20200;-62
2023/10/01 01:36:04;;;;;;;1.75;1.30;;;;;;;;;;5012720;28;20196;-62
2023/10/01 01:38:37;;;;;;;1.75;1.35;;;;;;;;;;5003159;28;20231;-61
2023/10/01 01:41:03;;;;;;;1.80;1.50;;;;;;;;;;5003356;28;20182;-61
2023/10/01 01:43:32;;;;;;;1.75;1.38;;;;;;;;;;5004537;28;20177;-61
2023/10/01 01:46:03;;;;;;;1.98;1.45;;;;;;;;;;5006345;28;20253;-61
2023/10/01 01:48:30;;;;;;;2.40;1.48;;;;;;;;;;5001213;28;20200;-61
2023/10/01 01:51:00;;;;;;;2.45;1.70;;;;;;;;;;4998541;28;20194;-61
2023/10/01 01:53:27;;;;;;;1.55;1.33;;;;;;;;;;5008630;28;20188;-61
2023/10/01 01:55:56;;;;;;;2.25;1.63;;;;;;;;;;5000641;28;20285;-61
2023/10/01 01:58:26;;;;;;;2.75;1.60;;;;;;;;;;5001900;28;20190;-61
2023/10/01 02:01:01;;;;;;;2.83;1.33;;;;;;;;;;4996096;28;20204;-61
2023/10/01 02:03:33;;;;;;;2.10;1.50;;;;;;;;;;4997102;28;20272;-61
2023/10/01 02:06:00;;;;;;;2.05;1.70;;;;;;;;;;4998326;28;20227;-62
2023/10/01 02:08:44;;;;;;;2.38;1.80;;;;;;;;;;5009648;28;20173;-62
2023/10/01 02:11:10;;;;;;;2.17;1.45;;;;;;;;;;5007868;28;20507;-61
2023/10/01 02:13:41;;;;;;;3.55;1.48;;;;;;;;;;4993195;28;20186;-62
2023/10/01 02:19:11;;;;;;;2.85;1.48;;;;;;;;;;5003137;28;20185;-62
2023/10/01 02:21:47;;;;;;;1.55;1.35;;;;;;;;;;5005412;28;20181;-61
2023/10/01 02:24:15;;;;;;;1.40;1.30;;;;;;;;;;4992654;28;20196;-61
2023/10/01 02:26:46;;;;;;;1.70;1.35;;;;;;;;;;4995753;28;20255;-61
2023/10/01 02:29:13;;;;;;;1.48;1.30;;;;;;;;;;5000076;28;20220;-62
2023/10/01 02:31:39;;;;;;;1.80;1.35;;;;;;;;;;5005154;28;20185;-61
2023/10/01 02:34:10;;;;;;;1.25;1.15;;;;;;;;;;5015816;28;20184;-62
2023/10/01 02:36:36;;;;;;;2.35;1.50;;;;;;;;;;5009947;28;20851;-62
2023/10/01 02:39:11;;;;;;;2.15;1.58;;;;;;;;;;4997745;28;20216;-62
2023/10/01 02:41:40;;;;;;;2.05;1.45;;;;;;;;;;4991591;28;20177;-62
2023/10/01 02:44:11;;;;;;;1.98;1.38;;;;;;;;;;4995881;28;20210;-63
2023/10/01 02:46:37;;;;;;;1.40;1.13;;;;;;;;;;4987883;28;20193;-62
2023/10/01 02:49:04;;;;;;;2.28;1.70;;;;;;;;;;5000280;28;20199;-61
2023/10/01 02:51:37;;;;;;;3.20;1.35;;;;;;;;;;4999966;28;20620;-61
2023/10/01 02:54:05;;;;;;;1.67;1.50;;;;;;;;;;5016618;28;20185;-61
2023/10/01 02:56:37;;;;;;;1.52;1.13;;;;;;;;;;5001868;28;20233;-61
2023/10/01 02:59:12;;;;;;;1.77;1.33;;;;;;;;;;4989121;28;20689;-61
2023/10/01 03:01:39;;;;;;;2.13;1.42;;;;;;;;;;5003938;28;20180;-61
2023/10/01 03:04:10;;;;;;;2.35;1.83;;;;;;;;;;5002576;28;20176;-61
2023/10/01 03:06:42;;;;;;;1.52;1.40;;;;;;;;;;4995035;28;20644;-61
2023/10/01 03:09:22;;;;;;;1.95;1.65;;;;;;;;;;4986070;28;20277;-61
2023/10/01 03:11:48;;;;;;;1.83;1.55;;;;;;;;;;4987563;28;20295;-61
2023/10/01 03:14:26;;;;;;;1.33;1.20;;;;;;;;;;4999454;28;20188;-61
2023/10/01 03:16:53;;;;;;;1.95;1.42;;;;;;;;;;5004658;28;20283;-61
2023/10/01 03:19:25;;;;;;;3.28;1.13;;;;;;;;;;4999523;28;20240;-61
2023/10/01 03:24:47;;;;;;;1.98;1.52;;;;;;;;;;4993087;28;20276;-61
2023/10/01 03:27:27;;;;;;;4.28;1.50;;;;;;;;;;5013591;28;20555;-61
2023/10/01 03:30:09;;;;;;;2.53;1.48;;;;;;;;;;4992761;28;20577;-61
2023/10/01 03:32:40;;;;;;;1.63;1.30;;;;;;;;;;5013505;28;20235;-62
2023/10/01 03:35:08;;;;;;;2.22;1.60;;;;;;;;;;4992242;28;20192;-62
2023/10/01 03:37:40;;;;;;;1.38;1.27;;;;;;;;;;5001786;28;20623;-62
2023/10/01 03:40:18;;;;;;;4.00;1.70;;;;;;;;;;4989054;28;20209;-61
2023/10/01 03:42:50;;;;;;;2.63;1.30;;;;;;;;;;4999263;28;20182;-61
2023/10/01 03:45:37;;;;;;;2.38;1.35;;;;;;;;;;5008611;28;20190;-61
2023/10/01 03:48:06;;;;;;;2.90;1.13;;;;;;;;;;4992284;28;20169;-62
2023/10/01 03:50:39;;;;;;;1.23;1.13;;;;;;;;;;5001422;28;20223;-61
2023/10/01 03:53:11;;;;;;;1.85;1.45;;;;;;;;;;4994329;28;20215;-61
2023/10/01 03:55:39;;;;;;;1.40;1.30;;;;;;;;;;5001864;28;20230;-62
2023/10/01 03:58:08;;;;;;;6.20;1.98;;;;;;;;;;4988366;28;20216;-61
2023/10/01 04:00:41;;;;;;;2.25;1.60;;;;;;;;;;5003446;28;20596;-61
2023/10/01 04:03:07;;;;;;;3.10;1.40;;;;;;;;;;4998173;28;20181;-61
2023/10/01 04:05:34;;;;;;;2.00;1.13;;;;;;;;;;4991444;28;20220;-61
2023/10/01 04:08:06;;;;;;;2.10;1.52;;;;;;;;;;5003760;28;20545;-61
2023/10/01 04:10:34;;;;;;;2.53;1.63;;;;;;;;;;5003407;28;20195;-62
2023/10/01 04:13:09;;;;;;;2.95;1.30;;;;;;;;;;4995940;28;20181;-61
2023/10/01 04:15:41;;;;;;;1.40;1.30;;;;;;;;;;4997057;28;20211;-61
2023/10/01 04:18:19;;;;;;;2.15;1.30;;;;;;;;;;4997657;28;20208;-61
2023/10/01 04:20:48;;;;;;;2.38;1.23;;;;;;;;;;4999009;28;20605;-61
2023/10/01 04:23:24;;;;;;;1.55;1.20;;;;;;;;;;4993872;28;20268;-62
2023/10/01 04:25:51;;;;;;;1.67;1.30;;;;;;;;;;4998599;28;20195;-61
2023/10/01 04:28:18;;;;;;;2.80;1.27;;;;;;;;;;4994412;28;20224;-61
2023/10/01 04:30:45;;;;;;;2.28;1.40;;;;;;;;;;5002342;28;20573;-61
2023/10/01 04:33:17;;;;;;;2.08;1.33;;;;;;;;;;4987006;28;20620;-61
2023/10/01 04:35:55;;;;;;;2.22;1.55;;;;;;;;;;4996646;28;20308;-61
2023/10/01 04:38:29;;;;;;;3.53;1.50;;;;;;;;;;4996359;28;20196;-62
2023/10/01 04:40:58;;;;;;;3.13;1.48;;;;;;;;;;5012233;28;20227;-62
2023/10/01 04:43:26;;;;;;;2.60;1.50;;;;;;;;;;5002325;28;20192;-62
2023/10/01 04:45:52;;;;;;;2.83;1.48;;;;;;;;;;5009744;28;20181;-62
2023/10/01 04:48:22;;;;;;;3.22;1.77;;;;;;;;;;5002423;28;20200;-61
2023/10/01 04:50:53;;;;;;;3.05;1.67;;;;;;;;;;5003958;28;20188;-61
2023/10/01 04:53:22;;;;;;;1.95;1.50;;;;;;;;;;4998329;28;20560;-61
2023/10/01 04:56:05;;;;;;;3.05;1.70;;;;;;;;;;4996124;28;20189;-61
2023/10/01 04:58:37;;;;;;;1.80;1.33;;;;;;;;;;4989387;28;20185;-62
2023/10/01 05:01:05;;;;;;;2.83;1.80;;;;;;;;;;5008743;28;20239;-62
2023/10/01 05:03:40;;;;;;;2.45;1.63;;;;;;;;;;5001671;28;20177;-61
2023/10/01 05:06:13;;;;;;;3.38;1.98;;;;;;;;;;5009106;28;20180;-61
2023/10/01 05:08:40;;;;;;;2.55;1.80;;;;;;;;;;5002565;28;20242;-62
2023/10/01 05:11:10;;;;;;;3.20;1.40;;;;;;;;;;5000901;28;20192;-61
2023/10/01 05:13:40;;;;;;;3.03;2.22;;;;;;;;;;5009788;28;20180;-61
2023/10/01 05:16:07;;;;;;;4.00;1.83;;;;;;;;;;5005989;28;20295;-61
2023/10/01 05:18:37;;;;;;;2.42;1.75;;;;;;;;;;4989454;28;20186;-61
2023/10/01 05:21:12;;;;;;;4.63;2.38;;;;;;;;;;5000524;28;20210;-61
2023/10/01 05:23:39;;;;;;;3.72;2.10;;;;;;;;;;4999169;28;20197;-62
2023/10/01 05:26:06;;;;;;;6.13;3.03;;;;;;;;;;5004021;28;20196;-62
2023/10/01 05:28:32;;;;;;;6.43;2.47;;;;;;;;;;5010250;28;20211;-61
2023/10/01 05:30:59;;;;;;;2.88;1.75;;;;;;;;;;5002259;28;20536;-61
2023/10/01 05:33:25;;;;;;;5.13;2.50;;;;;;;;;;5002607;28;20189;-60
2023/10/01 05:36:04;;;;;;;4.20;1.83;;;;;;;;;;4989923;28;20590;-61
2023/10/01 05:38:33;;;;;;;4.25;2.17;;;;;;;;;;5001503;28;20196;-61
2023/10/01 05:41:03;;;;;;;4.13;2.45;;;;;;;;;;4999668;28;20204;-61
2023/10/01 05:43:35;;;;;;;2.53;1.77;;;;;;;;;;4999988;28;20263;-61
2023/10/01 05:46:01;;;;;;;3.05;2.20;;;;;;;;;;4989438;28;20246;-61
2023/10/01 05:48:32;;;;;;;3.03;1.70;;;;;;;;;;5004184;28;20282;-60
2023/10/01 05:50:59;;;;;;;6.30;2.45;;;;;;;;;;5003574;28;20212;-61
2023/10/01 05:53:25;;;;;;;3.90;2.10;;;;;;;;;;4990478;28;20263;-61
2023/10/01 05:55:51;;;;;;;3.65;2.10;;;;;;;;;;5005443;28;20669;-60
2023/10/01 05:58:16;;;;;;;4.60;2.08;;;;;;;;;;4988233;28;20193;-60
2023/10/01 06:00:56;;;;;;;3.38;2.13;;;;;;;;;;5000719;28;20209;-60
2023/10/01 06:03:23;;;;;;;9.00;2.10;;;;;;;;;;5001736;28;20183;-60
2023/10/01 06:05:58;;;;;;;3.58;2.00;;;;;;;;;;4988917;28;20273;-60
2023/10/01 06:08:37;;;;;;;7.85;2.15;;;;;;;;;;4991401;28;20199;-60
2023/10/01 06:11:06;;;;;;;7.75;2.85;;;;;;;;;;4999267;28;20177;-61
2023/10/01 06:13:35;;;;;;;7.47;2.25;;;;;;;;;;4992771;28;20260;-61
2023/10/01 06:18:58;;;;;;;4.78;2.22;;;;;;;;;;4999996;28;20328;-50
2023/10/01 06:21:25;;;;;;;7.57;2.60;;;;;;;;;;4992101;28;20555;-51
2023/10/01 06:23:58;;;;;;;7.57;3.10;;;;;;;;;;5015102;28;20192;-53
2023/10/01 06:26:33;;;;;;;8.50;2.75;;;;;;;;;;4999237;28;20169;-54
2023/10/01 06:29:01;;;;;;;7.85;2.88;;;;;;;;;;4999654;28;20184;-54
2023/10/01 06:31:27;;;;;;;5.20;2.47;;;;;;;;;;4999218;28;20255;-53
2023/10/01 06:33:53;;;;;;;8.52;2.30;;;;;;;;;;5010692;28;20280;-53
2023/10/01 06:36:23;;;;;;;4.97;2.78;;;;;;;;;;4997481;28;20184;-54
2023/10/01 06:38:53;;;;;;;6.93;2.58;;;;;;;;;;5006533;28;20176;-54
2023/10/01 06:41:20;;;;;;;5.72;2.38;;;;;;;;;;4993792;28;20205;-54
2023/10/01 06:43:49;;;;;;;4.95;2.28;;;;;;;;;;4989213;28;20263;-54
2023/10/01 06:46:22;;;;;;;6.25;2.25;;;;;;;;;;5007339;28;20223;-54
2023/10/01 06:48:51;;;;;;;8.32;2.22;;;;;;;;;;5009453;28;20184;-54
2023/10/01 06:51:24;;;;;;;7.80;2.42;;;;;;;;;;4986110;28;20224;-54
2023/10/01 06:54:00;;;;;;;8.93;2.40;;;;;;;;;;5001618;28;20711;-54
2023/10/01 06:56:32;;;;;;;5.28;2.30;;;;;;;;;;4982746;28;20440;-54
2023/10/01 06:59:13;;;;;;;3.63;1.98;;;;;;;;;;5003498;28;20218;-58
2023/10/01 07:01:46;;;;;;;4.78;2.53;;;;;;;;;;4987302;28;20262;-57
2023/10/01 07:04:13;;;;;;;9.07;2.92;;;;;;;;;;4997281;28;20308;-49
2023/10/01 07:06:40;;;;;;;5.57;2.80;;;;;;;;;;4989583;28;20185;-54
2023/10/01 07:09:23;;;;;;;4.88;2.30;;;;;;;;;;5000638;28;20202;-53
2023/10/01 07:11:49;;;;;;;5.22;2.28;;;;;;;;;;4995953;28;20188;-50
2023/10/01 07:14:18;;;;;;;7.20;2.30;;;;;;;;;;5010028;28;20260;-52
2023/10/01 07:16:44;;;;;;;4.55;2.30;;;;;;;;;;4996331;28;20206;-55
2023/10/01 07:19:13;;;;;;;7.15;2.38;;;;;;;;;;4988199;28;20200;-53
2023/10/01 07:21:45;;;;;;;8.75;2.47;;;;;;;;;;5001086;28;20183;-50
2023/10/01 07:24:11;;;;;;;5.32;2.40;;;;;;;;;;5008951;28;20313;-49
2023/10/01 07:26:40;;;;;;;7.20;2.25;;;;;;;;;;4993066;28;20193;-49
2023/10/01 07:29:06;;;;;;;6.07;2.20;;;;;;;;;;4997803;28;20201;-49
2023/10/01 07:31:35;;;;;;;4.80;2.13;;;;;;;;;;4992495;28;20192;-49
2023/10/01 07:34:01;;;;;;;4.43;2.40;;;;;;;;;;5004880;28;20610;-49
2023/10/01 07:36:28;;;;;;;5.57;2.35;;;;;;;;;;5001106;28;20189;-49
2023/10/01 07:38:56;;;;;;;7.05;2.65;;;;;;;;;;4990202;28;20174;-50
2023/10/01 07:41:27;;;;;;;5.63;2.60;;;;;;;;;;5001836;28;20181;-49
2023/10/01 07:43:55;;;;;;;6.43;2.53;;;;;;;;;;5002437;28;20472;-50
2023/10/01 07:46:21;;;;;;;4.35;2.30;;;;;;;;;;5000068;28;20182;-49
2023/10/01 07:48:47;;;;;;;4.30;1.85;;;;;;;;;;4999142;28;20185;-49
2023/10/01 07:51:23;;;;;;;5.07;2.35;;;;;;;;;;5003081;28;20185;-49
2023/10/01 07:53:51;;;;;;;4.35;2.70;;;;;;;;;;4994721;28;20211;-50
2023/10/01 07:56:17;;;;;;;4.22;2.10;;;;;;;;;;4995442;28;20231;-49
2023/10/01 07:58:47;;;;;;;6.53;2.63;;;;;;;;;;4987957;28;20181;-49
2023/10/01 08:03:58;;;;;;;4.90;2.28;;;;;;;;;;5007823;28;20187;-49
2023/10/01 08:06:30;;;;;;;5.80;2.08;;;;;;;;;;5000272;28;20181;-50
2023/10/01 08:08:57;;;;;;;5.97;2.70;;;;;;;;;;5002989;28;20192;-50
2023/10/01 08:14:09;;;;;;;6.72;2.70;;;;;;;;;;4994053;28;20523;-49
2023/10/01 08:16:47;;;;;;;5.88;2.08;;;;;;;;;;4999672;28;20264;-49
2023/10/01 08:19:14;;;;;;;4.53;2.20;;;;;;;;;;5004980;28;20548;-49
2023/10/01 08:21:48;;;;;;;4.43;2.30;;;;;;;;;;5003646;28;20223;-50
2023/10/01 08:24:18;;;;;;;4.90;2.55;;;;;;;;;;4999766;28;20249;-49
2023/10/01 08:26:49;;;;;;;5.18;2.33;;;;;;;;;;4997836;28;20570;-49
2023/10/01 08:29:15;;;;;;;5.55;2.65;;;;;;;;;;4994607;28;20199;-49
2023/10/01 08:32:08;;;;;;;4.07;2.30;;;;;;;;;;5007737;28;20552;-49
2023/10/01 08:34:29;;;;;;;4.97;2.60;;;;;;;;;;4993312;28;20193;-49
2023/10/01 08:36:56;;;;;;;3.85;1.90;;;;;;;;;;4990750;28;20181;-49
2023/10/01 08:40:13;;;;;;;3.50;2.17;;;;;;;;;;4996218;28;20314;-49
2023/10/01 08:42:08;;;;;;;3.20;2.20;;;;;;;;;;4992024;28;20271;-49
2023/10/01 08:45:03;;;;;;;3.85;2.40;;;;;;;;;;4985898;28;20182;-49
2023/10/01 08:49:57;;;;;;;5.35;2.42;;;;;;;;;;4998684;28;20253;-49
2023/10/01 08:52:30;;;;;;;5.05;2.95;;;;;;;;;;4998263;28;20191;-49
2023/10/01 08:54:56;;;;;;;6.85;2.90;;;;;;;;;;4988770;28;20273;-49
2023/10/01 08:57:38;;;;;;;4.22;2.63;;;;;;;;;;4995775;28;20211;-49
2023/10/01 09:00:17;;;;;;;5.85;2.88;;;;;;;;;;4995104;28;20332;-50
2023/10/01 09:02:43;;;;;;;6.80;2.80;;;;;;;;;;4990454;28;20564;-50
2023/10/01 09:05:11;;;;;;;7.45;2.70;;;;;;;;;;4994076;28;20194;-49
2023/10/01 09:07:42;;;;;;;6.22;2.97;;;;;;;;;;4992006;28;20185;-50
2023/10/01 09:10:08;;;;;;;10.05;3.40;;;;;;;;;;4992715;28;20495;-49
2023/10/01 09:12:46;;;;;;;18.20;3.55;;;;;;;;;;5000607;28;20267;-49
2023/10/01 09:15:38;;;;;;;7.00;2.90;;;;;;;;;;4992962;28;20211;-49
2023/10/01 09:18:10;;;;;;;8.55;3.10;;;;;;;;;;5002700;28;20173;-49
2023/10/01 09:20:38;;;;;;;11.07;3.38;;;;;;;;;;5008351;28;20193;-49
2023/10/01 09:23:06;;;;;;;7.75;3.10;;;;;;;;;;5000327;28;20182;-50
2023/10/01 09:25:39;;;;;;;8.35;3.05;;;;;;;;;;4993780;28;20195;-49
2023/10/01 09:28:29;;;;;;;5.85;3.67;;;;;;;;;;4994862;28;20224;-49
2023/10/01 09:31:26;;;;;;;5.72;2.70;;;;;;;;;;5002186;28;20177;-49
2023/10/01 09:33:55;;;;;;;6.15;2.92;;;;;;;;;;5001060;28;20184;-49
2023/10/01 09:36:35;;;;;;;7.07;3.33;;;;;;;;;;5004477;28;20211;-49
2023/10/01 09:39:03;;;;;;;5.97;2.78;;;;;;;;;;4994794;28;20182;-49
2023/10/01 09:41:34;;;;;;;6.60;2.97;;;;;;;;;;4991183;28;20550;-49
2023/10/01 09:44:03;;;;;;;4.80;2.80;;;;;;;;;;4999340;28;20571;-49
2023/10/01 09:46:33;;;;;;;4.97;2.65;;;;;;;;;;4994115;28;20184;-50
2023/10/01 09:49:02;;;;;;;6.60;3.38;;;;;;;;;;4999898;28;20265;-50
2023/10/01 09:51:35;;;;;;;5.22;2.88;;;;;;;;;;4993826;28;20172;-50
2023/10/01 09:54:02;;;;;;;3.88;2.63;;;;;;;;;;5007491;28;20183;-49
2023/10/01 09:56:29;;;;;;;7.03;2.90;;;;;;;;;;4996801;28;20203;-49
2023/10/01 09:59:03;;;;;;;6.00;3.30;;;;;;;;;;4993850;28;20345;-49
2023/10/01 10:01:33;;;;;;;5.75;3.10;;;;;;;;;;4993291;28;20178;-49
2023/10/01 10:04:01;;;;;;;7.15;3.00;;;;;;;;;;4981766;28;20189;-49
2023/10/01 10:06:27;;;;;;;8.00;3.10;;;;;;;;;;4996427;28;20227;-49
2023/10/01 10:09:03;;;;;;;9.45;3.17;;;;;;;;;;4988191;28;20182;-49
2023/10/01 10:11:40;;;;;;;5.95;3.28;;;;;;;;;;4993845;28;20180;-49
2023/10/01 10:14:25;;;;;;;6.78;3.00;;;;;;;;;;4983749;28;20549;-49
2023/10/01 10:17:07;;;;;;;5.63;2.65;;;;;;;;;;5005231;28;20173;-49
2023/10/01 10:19:47;;;;;;;6.57;3.03;;;;;;;;;;5001272;28;20263;-50
2023/10/01 10:22:16;;;;;;;7.63;3.83;;;;;;;;;;4994003;28;20189;-49
2023/10/01 10:24:46;;;;;;;9.60;3.20;;;;;;;;;;4997006;28;20239;-49
2023/10/01 10:27:17;;;;;;;6.80;3.03;;;;;;;;;;4996024;28;20186;-49
2023/10/01 10:30:00;;;;;;;6.35;2.95;;;;;;;;;;4986905;28;20426;-49
2023/10/01 10:32:27;;;;;;;8.65;3.33;;;;;;;;;;5006996;28;20173;-49
2023/10/01 10:35:19;;;;;;;11.05;3.97;;;;;;;;;;4998154;28;20208;-49
2023/10/01 10:37:45;;;;;;;5.80;2.80;;;;;;;;;;4999580;28;20204;-49
2023/10/01 10:42:47;;;;;;;5.35;2.80;;;;;;;;;;5008534;28;20243;-49
2023/10/01 10:45:20;;;;;;;6.40;2.85;;;;;;;;;;5007564;28;20181;-49
2023/10/01 10:48:04;;;;;;;8.98;3.17;;;;;;;;;;5010729;28;20184;-49
2023/10/01 10:50:44;;;;;;;7.10;2.85;;;;;;;;;;5004407;28;20277;-49
2023/10/01 10:53:16;;;;;;;8.00;3.20;;;;;;;;;;5002741;28;20466;-49
2023/10/01 10:55:55;;;;;;;9.88;2.85;;;;;;;;;;4998160;28;20190;-49
2023/10/01 10:58:24;;;;;;;7.47;2.85;;;;;;;;;;5003511;28;20235;-49
2023/10/01 11:00:50;;;;;;;6.05;2.95;;;;;;;;;;5005028;28;20201;-49
2023/10/01 11:03:16;;;;;;;5.07;2.67;;;;;;;;;;5004033;28;20182;-49
2023/10/01 11:05:52;;;;;;;6.32;2.90;;;;;;;;;;4992795;28;20461;-49
2023/10/01 11:08:28;;;;;;;5.38;2.65;;;;;;;;;;4992528;28;20561;-49
2023/10/01 11:10:55;;;;;;;4.82;2.67;;;;;;;;;;4993713;28;20267;-49
2023/10/01 11:13:45;;;;;;;5.05;2.40;;;;;;;;;;4989036;28;20188;-49
2023/10/01 11:16:16;;;;;;;5.10;2.70;;;;;;;;;;4994145;28;20186;-49
2023/10/01 11:18:47;;;;;;;6.05;2.65;;;;;;;;;;5004443;28;20185;-49
2023/10/01 11:21:20;;;;;;;6.30;2.63;;;;;;;;;;5003950;28;20212;-49
2023/10/01 11:23:47;;;;;;;8.32;2.83;;;;;;;;;;4997842;28;20188;-49
2023/10/01 11:26:26;;;;;;;6.10;2.63;;;;;;;;;;5004117;28;20264;-49
2023/10/01 11:28:52;;;;;;;4.00;2.20;;;;;;;;;;4986060;28;20184;-49
2023/10/01 11:31:25;;;;;;;4.60;2.75;;;;;;;;;;4993826;28;20203;-49
2023/10/01 11:34:03;;;;;;;6.97;2.97;;;;;;;;;;5000214;28;20188;-49
2023/10/01 11:36:35;;;;;;;3.85;2.40;;;;;;;;;;4998654;28;20182;-50
2023/10/01 11:39:06;;;;;;;4.70;2.83;;;;;;;;;;5006658;28;20267;-49
2023/10/01 11:41:44;;;;;;;5.82;2.65;;;;;;;;;;5000739;28;20189;-49
2023/10/01 11:44:24;;;;;;;6.45;3.40;;;;;;;;;;4996737;28;20219;-49
2023/10/01 11:46:59;;;;;;;7.13;2.80;;;;;;;;;;5001737;28;20184;-49
2023/10/01 11:49:34;;;;;;;6.63;2.65;;;;;;;;;;5003858;28;20192;-49
2023/10/01 11:52:20;;;;;;;6.07;2.63;;;;;;;;;;5006242;28;20211;-49
2023/10/01 11:54:52;;;;;;;9.40;2.92;;;;;;;;;;4986637;28;20533;-49
2023/10/01 11:57:22;;;;;;;4.80;2.85;;;;;;;;;;4988170;28;20219;-49
2023/10/01 11:59:55;;;;;;;7.65;2.63;;;;;;;;;;5002545;28;20478;-49
2023/10/01 12:02:43;;;;;;;4.43;2.88;;;;;;;;;;5006788;28;20262;-49
2023/10/01 12:05:13;;;;;;;7.15;2.63;;;;;;;;;;5000958;28;20208;-49
2023/10/01 12:07:43;;;;;;;4.75;2.42;;;;;;;;;;4989978;28;20177;-49
2023/10/01 12:10:31;;;;;;;7.07;3.20;;;;;;;;;;5000719;28;20185;-49
2023/10/01 12:12:56;;;;;;;4.65;2.50;;;;;;;;;;5001393;28;20192;-49
2023/10/01 12:15:34;;;;;;;5.13;2.55;;;;;;;;;;5004584;28;20188;-50
2023/10/01 12:18:07;;;;;;;5.22;2.83;;;;;;;;;;5006359;28;20184;-49
2023/10/01 12:20:39;;;;;;;5.68;2.80;;;;;;;;;;4995885;28;20197;-49
2023/10/01 12:23:11;;;;;;;5.80;2.90;;;;;;;;;;4998587;28;20280;-49
2023/10/01 12:26:11;;;;;;;9.15;2.80;;;;;;;;;;5002983;28;20188;-49
2023/10/01 12:29:10;;;;;;;5.15;3.03;;;;;;;;;;5010747;28;20195;-49
2023/10/01 12:31:25;;;;;;;6.68;3.13;;;;;;;;;;4992891;28;20450;-49
2023/10/01 12:33:58;;;;;;;8.40;2.83;;;;;;;;;;5003340;28;20173;-49
2023/10/01 12:36:32;;;;;;;6.30;3.20;;;;;;;;;;4997853;28;20231;-49
2023/10/01 12:41:47;;;;;;;6.35;2.63;;;;;;;;;;4987613;28;20200;-49
2023/10/01 12:44:32;;;;;;;5.15;2.63;;;;;;;;;;4998644;28;20231;-49
2023/10/01 12:47:02;;;;;;;5.18;2.40;;;;;;;;;;4997445;28;20178;-49
2023/10/01 12:49:28;;;;;;;4.97;2.58;;;;;;;;;;5009781;28;20180;-49
2023/10/01 12:51:54;;;;;;;4.30;2.20;;;;;;;;;;4994919;28;20184;-50
2023/10/01 12:54:27;;;;;;;6.68;3.03;;;;;;;;;;5003670;28;20557;-49
2023/10/01 12:57:09;;;;;;;5.53;2.90;;;;;;;;;;4999861;28;20211;-49
2023/10/01 12:59:44;;;;;;;6.03;3.10;;;;;;;;;;4989956;28;20233;-49
2023/10/01 13:02:28;;;;;;;5.57;2.75;;;;;;;;;;5001411;28;20173;-49
2023/10/01 13:05:16;;;;;;;4.80;2.65;;;;;;;;;;5000419;28;20176;-49
2023/10/01 13:07:50;;;;;;;3.72;2.45;;;;;;;;;;5006194;28;20184;-49
2023/10/01 13:10:17;;;;;;;5.55;2.65;;;;;;;;;;5009353;28;20303;-49
2023/10/01 13:12:55;;;;;;;5.55;2.55;;;;;;;;;;4997550;28;20228;-49
2023/10/01 13:15:29;;;;;;;5.47;2.78;;;;;;;;;;4998639;28;20180;-50
2023/10/01 13:18:04;;;;;;;5.32;2.60;;;;;;;;;;5006727;28;20460;-49
2023/10/01 13:20:46;;;;;;;6.07;2.65;;;;;;;;;;5007708;28;20196;-49
2023/10/01 13:23:12;;;;;;;6.32;2.70;;;;;;;;;;5003302;28;20189;-50
2023/10/01 13:25:39;;;;;;;5.43;2.80;;;;;;;;;;5009238;28;20223;-49
2023/10/01 13:28:05;;;;;;;4.70;2.60;;;;;;;;;;5009510;28;20261;-49
2023/10/01 13:30:51;;;;;;;5.82;2.88;;;;;;;;;;5007562;28;20462;-49
2023/10/01 13:33:19;;;;;;;3.45;2.60;;;;;;;;;;5006479;28;20185;-50
2023/10/01 13:35:57;;;;;;;5.43;3.03;;;;;;;;;;5008830;28;20173;-49
2023/10/01 14:11:05;;;;;;;6.55;3.22;;;;;;;;;;4979245;28;20197;-49
2023/10/01 14:13:41;;;;;;;5.20;2.85;;;;;;;;;;5001445;28;20324;-49
2023/10/01 14:16:22;;;;;;;5.43;2.95;;;;;;;;;;4993688;28;20181;-49
2023/10/01 14:18:55;;;;;;;4.60;2.67;;;;;;;;;;4990304;28;20185;-49
2023/10/01 14:21:22;;;;;;;4.90;2.80;;;;;;;;;;4997103;28;20213;-49
2023/10/01 14:23:49;;;;;;;5.85;3.03;;;;;;;;;;4995892;28;20185;-49
2023/10/01 14:26:21;;;;;;;8.52;3.22;;;;;;;;;;4989099;28;20228;-50
2023/10/01 14:28:49;;;;;;;5.00;2.58;;;;;;;;;;4979296;28;20262;-50
2023/10/01 14:34:03;;;;;;;6.18;3.03;;;;;;;;;;4990064;28;20480;-49
2023/10/01 14:36:29;;;;;;;5.43;2.60;;;;;;;;;;4986270;28;20585;-49
2023/10/01 14:38:58;;;;;;;5.93;2.83;;;;;;;;;;4986902;28;20261;-49
2023/10/01 14:41:28;;;;;;;5.85;3.00;;;;;;;;;;4990712;28;20340;-50
2023/10/01 14:43:56;;;;;;;6.10;2.85;;;;;;;;;;4986863;28;20169;-49
2023/10/01 14:46:23;;;;;;;5.38;3.10;;;;;;;;;;4984561;28;20190;-49
2023/10/01 14:48:49;;;;;;;6.30;2.78;;;;;;;;;;4986290;28;20181;-50
2023/10/01 14:51:25;;;;;;;5.80;3.10;;;;;;;;;;4996706;28;20572;-50
2023/10/01 14:53:54;;;;;;;4.68;2.78;;;;;;;;;;4988598;28;20180;-49
2023/10/01 14:56:20;;;;;;;6.18;2.97;;;;;;;;;;4989121;28;20174;-50
2023/10/01 14:58:47;;;;;;;4.95;2.65;;;;;;;;;;4991312;28;20198;-49
2023/10/01 15:01:14;;;;;;;5.35;3.28;;;;;;;;;;4994275;28;20221;-50
2023/10/01 15:03:40;;;;;;;5.50;3.20;;;;;;;;;;4997018;28;20698;-49
2023/10/01 15:06:07;;;;;;;5.28;2.88;;;;;;;;;;5007917;28;20188;-49
2023/10/01 15:08:39;;;;;;;5.55;2.95;;;;;;;;;;4994264;28;20217;-50
2023/10/01 15:11:12;;;;;;;5.32;3.05;;;;;;;;;;5005040;28;20604;-49
2023/10/01 15:13:45;;;;;;;5.72;3.47;;;;;;;;;;4997271;28;20191;-49
2023/10/01 15:16:15;;;;;;;4.68;2.85;;;;;;;;;;5008309;28;20180;-50
2023/10/01 15:18:42;;;;;;;5.22;3.08;;;;;;;;;;4999376;28;20239;-50
2023/10/01 15:21:19;;;;;;;6.57;2.88;;;;;;;;;;4997691;28;20205;-49
2023/10/01 15:23:45;;;;;;;5.68;3.30;;;;;;;;;;4996090;28;20659;-49
2023/10/01 15:26:12;;;;;;;5.78;2.97;;;;;;;;;;5005899;28;20191;-49
2023/10/01 15:28:38;;;;;;;6.13;3.10;;;;;;;;;;4993061;28;20173;-49
2023/10/01 15:31:04;;;;;;;6.15;3.15;;;;;;;;;;5010729;28;20502;-49
2023/10/01 15:33:30;;;;;;;5.03;2.95;;;;;;;;;;5004247;28;20232;-48
2023/10/01 15:36:04;;;;;;;5.07;3.05;;;;;;;;;;5004027;28;20245;-50
2023/10/01 15:38:31;;;;;;;6.50;3.30;;;;;;;;;;4991033;28;20493;-49
2023/10/01 15:40:57;;;;;;;5.93;2.97;;;;;;;;;;4999329;28;20468;-50
2023/10/01 15:43:23;;;;;;;5.60;3.22;;;;;;;;;;4995994;28;20182;-49
2023/10/01 15:45:50;;;;;;;4.22;3.00;;;;;;;;;;5003305;28;20189;-49
2023/10/01 15:48:19;;;;;;;5.43;2.70;;;;;;;;;;5002720;28;20183;-50
2023/10/01 15:50:46;;;;;;;5.50;3.00;;;;;;;;;;5005103;28;20197;-49
2023/10/01 15:53:21;;;;;;;6.03;3.08;;;;;;;;;;4998686;28;20450;-50
2023/10/01 15:55:58;;;;;;;6.75;3.53;;;;;;;;;;4999948;28;20181;-54
2023/10/01 15:58:25;;;;;;;7.28;2.85;;;;;;;;;;5000851;28;20176;-49
2023/10/01 16:00:55;;;;;;;7.03;3.50;;;;;;;;;;5000803;28;20582;-49
2023/10/01 16:03:30;;;;;;;8.00;4.05;;;;;;;;;;4995868;28;20169;-49